Lebanon, MO (65536)

8:06 PM CST on February 08, 2016 (GMT -0600)
Lebanon Mo | | Change Station
CLOSE
Current Station
Personal Weather Station
Location: Lebanon, MO
Elevation: 1207 ft
Nearby Weather Stations

Elev 1207 ft 37.69 °N, 92.69 °W | Updated 8 seconds ago

Snow
Snow
27.1 °F
Feels Like 13 °F
N
22.8
Wind Variable Wind from NW
Gusts 29.5 mph

Today
High -- | Low -- °F
--% Chance of Precip.
Yesterday
High -- | Low -- °F
Precip. -- in
Pressure 30.03 in
Visibility 10.0 miles
Clouds Few 2200 ft
Overcast 3200 ft
Windchill 13 °F
Dew Point 18 °F
Humidity 67%
Rainfall 0.00 in
Snow Depth Not available.
7:08 AM 5:41 PM
New Moon, 0% visible
METAR KTBN 090158Z AUTO 29013G22KT 10SM -SN FEW022 OVC032 M03/M08 A2998 RMK AO2 SNE05UPB05E10SNB10 CIG 025 RWY14 SLP167 P0000 T10351081
Pressure 30.03 in
Visibility 10.0 miles
Clouds Few 2200 ft
Overcast 3200 ft
Windchill 13 °F
Dew Point 18 °F
Humidity 67%
Rainfall 0.00 in
Snow Depth Not available.
7:08 AM 5:41 PM
New Moon, 0% visible
METAR KTBN 090158Z AUTO 29013G22KT 10SM -SN FEW022 OVC032 M03/M08 A2998 RMK AO2 SNE05UPB05E10SNB10 CIG 025 RWY14 SLP167 P0000 T10351081

10-Day Weather Forecast

Almanac

Astronomy

Feb. 08, 2016 Rise Set
Actual Time
Civil Twilight
Nautical Twilight
Astronomical Twilight
Moon
Length of Visible Light
Length of Day
Tomorrow will be .
, % of the Moon is Illuminated

Today's Extremes

State Highs State Lows

Community

WunderPhotos

Upload Photos

1,891,527 photos uploaded!

WunderBlog® & News

Nearby

Air Quality

  Air Quality AQ Index Pollutant
Not available.

Snow Depth

Station Depth Elevation

Earthquake Activity

City Distance Mag. Time & Date
Minimum magnitude displayed is 2.5.

Coastal Water Temperatures

Place Temperature

Stations

Nearby Weather Stations

Station Location Temp. Windchill Dew Point Humidity Wind Precip. Elev Updated Type
                   

Watches & Warnings

There are currently no watches in effect.